createdAt,value
2024-05-09T00:03:56.515Z,11.77
2024-05-09T00:06:23.168Z,11.73
2024-05-09T00:08:49.827Z,11.71
2024-05-09T00:11:16.629Z,11.67
2024-05-09T00:13:43.401Z,11.65
2024-05-09T00:16:10.147Z,11.63
2024-05-09T00:18:40.223Z,11.58
2024-05-09T00:21:08.844Z,11.54
2024-05-09T00:26:53.034Z,11.50
2024-05-09T00:30:41.615Z,11.47
2024-05-09T00:37:34.048Z,11.34
2024-05-09T00:40:05.800Z,11.32
2024-05-09T00:48:42.573Z,11.27
2024-05-09T00:51:15.339Z,11.22
2024-05-09T00:53:42.440Z,11.18
2024-05-09T00:56:13.597Z,11.14
2024-05-09T00:58:40.711Z,11.13
2024-05-09T01:19:40.292Z,11.11
2024-05-09T01:23:00.054Z,11.13
2024-05-09T01:25:26.734Z,11.08
2024-05-09T01:27:53.330Z,10.98
2024-05-09T01:30:24.374Z,10.89
2024-05-09T01:32:54.836Z,10.82
2024-05-09T01:35:23.574Z,10.80
2024-05-09T01:37:51.941Z,10.81
2024-05-09T01:40:25.209Z,10.83
2024-05-09T01:43:00.482Z,10.78
2024-05-09T01:45:27.941Z,10.75
2024-05-09T01:47:54.825Z,10.68
2024-05-09T01:50:33.080Z,10.57
2024-05-09T01:53:04.303Z,10.53
2024-05-09T01:55:30.873Z,10.49
2024-05-09T01:57:57.480Z,10.45
2024-05-09T02:00:38.077Z,10.48
2024-05-09T02:03:23.306Z,10.42
2024-05-09T02:05:57.986Z,10.35
2024-05-09T02:08:26.019Z,10.33
2024-05-09T02:11:14.851Z,10.32
2024-05-09T02:13:53.656Z,10.28
2024-05-09T02:26:15.457Z,10.15
2024-05-09T02:29:35.018Z,10.12
2024-05-09T02:32:01.823Z,10.14
2024-05-09T02:37:09.131Z,10.24
2024-05-09T02:39:47.661Z,10.13
2024-05-09T02:46:18.911Z,10.03
2024-05-09T02:54:46.900Z,9.91
2024-05-09T02:57:15.827Z,9.87
2024-05-09T02:59:45.312Z,9.88
2024-05-09T03:02:11.966Z,9.85
2024-05-09T03:04:38.858Z,9.86
2024-05-09T03:07:05.520Z,9.90
2024-05-09T03:09:32.167Z,9.93
2024-05-09T03:11:59.252Z,9.91
2024-05-09T03:14:26.201Z,9.89
2024-05-09T03:16:52.891Z,9.90
2024-05-09T03:19:19.533Z,9.94
2024-05-09T03:21:46.198Z,9.93
2024-05-09T03:24:12.784Z,9.94
2024-05-09T03:26:39.403Z,9.92
2024-05-09T03:29:06.268Z,9.87
2024-05-09T03:31:33.325Z,9.74
2024-05-09T03:34:00.087Z,9.69
2024-05-09T03:36:26.764Z,9.72
2024-05-09T03:38:53.809Z,9.75
2024-05-09T03:41:25.645Z,9.80
2024-05-09T03:43:52.281Z,9.75
2024-05-09T03:46:18.891Z,9.70
2024-05-09T03:48:45.606Z,9.62
2024-05-09T03:51:12.516Z,9.62
2024-05-09T03:53:43.433Z,9.63
2024-05-09T03:56:10.237Z,9.63
2024-05-09T03:58:37.740Z,9.59
2024-05-09T04:01:05.099Z,9.57
2024-05-09T04:03:34.740Z,9.54
2024-05-09T04:07:14.096Z,9.42
2024-05-09T04:15:14.989Z,9.42
2024-05-09T04:17:53.872Z,9.32
2024-05-09T04:20:53.284Z,9.31
2024-05-09T04:23:19.962Z,9.28
2024-05-09T04:25:47.138Z,9.28
2024-05-09T04:28:14.441Z,9.30
2024-05-09T04:30:47.218Z,9.26
2024-05-09T04:55:00.352Z,9.36
2024-05-09T05:00:32.271Z,9.44
2024-05-09T05:03:08.410Z,9.48
2024-05-09T05:05:41.865Z,9.54
2024-05-09T05:08:13.245Z,9.58
2024-05-09T05:13:23.822Z,9.69
2024-05-09T05:15:58.864Z,9.74
2024-05-09T05:29:49.805Z,10.16
2024-05-09T05:32:16.680Z,10.25
2024-05-09T05:34:46.321Z,10.32
2024-05-09T05:37:13.047Z,10.40
2024-05-09T05:39:39.558Z,10.48
2024-05-09T05:42:06.253Z,10.55
2024-05-09T06:31:08.762Z,11.96
2024-05-09T07:21:51.778Z,13.59
2024-05-09T07:24:18.659Z,13.66
2024-05-09T07:27:07.514Z,13.83
2024-05-09T07:29:42.165Z,13.98
2024-05-09T07:32:15.145Z,14.02
2024-05-09T07:34:41.951Z,14.08
2024-05-09T07:37:12.770Z,14.22
2024-05-09T07:39:40.204Z,14.34
2024-05-09T07:42:07.195Z,14.37
2024-05-09T07:44:33.928Z,14.41
2024-05-09T07:55:45.372Z,14.86
2024-05-09T08:01:38.239Z,15.06
2024-05-09T08:04:04.959Z,15.23
2024-05-09T08:06:34.522Z,15.31
2024-05-09T08:09:05.439Z,15.42
2024-05-09T08:11:34.820Z,15.58
2024-05-09T08:14:01.600Z,15.66
2024-05-09T08:16:28.695Z,15.73
2024-05-09T08:18:55.527Z,15.78
2024-05-09T08:21:22.187Z,15.91
2024-05-09T08:23:53.714Z,15.98
2024-05-09T08:26:20.598Z,16.09
2024-05-09T08:28:47.360Z,16.26
2024-05-09T08:31:17.108Z,16.39
2024-05-09T08:33:50.226Z,16.46
2024-05-09T08:36:17.424Z,16.51
2024-05-09T08:38:48.660Z,16.61
2024-05-09T08:41:19.550Z,16.72
2024-05-09T08:46:42.759Z,16.90
2024-05-09T08:49:10.334Z,17.05
2024-05-09T08:51:37.259Z,17.25
2024-05-09T08:54:06.671Z,17.36
2024-05-09T08:56:42.354Z,17.30
2024-05-09T08:59:18.004Z,17.22
2024-05-09T09:09:15.723Z,17.71
2024-05-09T09:12:08.580Z,18.01
2024-05-09T09:14:36.126Z,18.05
2024-05-09T09:17:12.703Z,18.09
2024-05-09T09:19:42.195Z,18.14
2024-05-09T09:22:10.467Z,18.27
2024-05-09T09:24:37.121Z,18.24
2024-05-09T09:27:04.204Z,18.29
2024-05-09T09:29:34.321Z,18.22
2024-05-09T09:32:05.355Z,18.09
2024-05-09T09:34:32.671Z,18.09
2024-05-09T09:37:06.511Z,18.08
2024-05-09T09:39:38.936Z,18.02
2024-05-09T09:42:09.119Z,18.02
2024-05-09T09:44:39.463Z,18.01
2024-05-09T09:47:06.566Z,17.97
2024-05-09T09:49:33.537Z,17.81
2024-05-09T09:52:02.307Z,17.65
2024-05-09T10:01:28.471Z,17.67
2024-05-09T10:04:02.431Z,17.77
2024-05-09T10:06:30.127Z,17.74
2024-05-09T10:36:30.494Z,19.32
2024-05-09T11:29:10.889Z,20.09
2024-05-09T11:31:47.724Z,20.15
2024-05-09T11:34:18.099Z,20.11
2024-05-09T12:20:00.256Z,19.51
2024-05-09T12:22:29.776Z,19.53
2024-05-09T12:24:56.327Z,19.52
2024-05-09T12:33:19.863Z,19.38
2024-05-09T12:36:33.346Z,19.34
2024-05-09T12:39:18.026Z,19.32
2024-05-09T12:48:13.342Z,19.36
2024-05-09T12:50:42.004Z,19.38
2024-05-09T12:53:28.873Z,19.46
2024-05-09T12:56:19.722Z,19.34
2024-05-09T12:58:46.311Z,19.33
2024-05-09T13:02:01.224Z,19.40
2024-05-09T13:11:14.871Z,19.53
2024-05-09T13:13:41.511Z,19.51
2024-05-09T13:18:13.061Z,19.61
2024-05-09T13:48:34.696Z,19.33
2024-05-09T13:51:30.152Z,19.27
2024-05-09T13:56:52.504Z,19.08
2024-05-09T14:09:53.636Z,19.02
2024-05-09T14:12:27.636Z,19.06
2024-05-09T14:14:55.453Z,19.07
2024-05-09T14:17:24.310Z,18.97
2024-05-09T14:20:13.972Z,19.07
2024-05-09T14:22:44.973Z,19.14
2024-05-09T14:25:15.404Z,19.18
2024-05-09T14:27:42.182Z,19.20
2024-05-09T14:30:18.601Z,19.20
2024-05-09T14:32:59.310Z,19.22
2024-05-09T16:32:53.397Z,20.00
2024-05-09T16:39:07.144Z,20.03
2024-05-09T16:45:14.959Z,19.73
2024-05-09T17:10:29.656Z,19.27
2024-05-09T17:20:34.357Z,19.20
2024-05-09T17:37:42.889Z,18.98
2024-05-09T17:40:16.881Z,18.97
2024-05-09T18:01:09.885Z,18.57
